Roxbury, New Hampshire
Current Conditions -  °F | °C
As of 11:35 AM on Wednesday 22 Oct 2014 (Local Time) from KEEN Reporting Station
Overcast Overcast  
Wind Chill: 52°   Ceiling: 1900
Heat Index: 52°   Visibility: 9mi
Dew Point: 39°   Wind: 14mph
Humidity: 62%   Direction: 20°NNE
Pressure: 30.07"   Gusts: 21mph
Location:  42.9764°N, 72.2744°W
Report Text: KEEN 221535Z AUTO 02012G18KT 9SM OVC019 11/04 A3007 RMK AO1
Loading
Personal Weather Stations






























Interactive Weather Map
Tropical Storm Tracking
New forecast layout! Learn more

10-Day Weather Forecast

Advertisements
Track Severe Weather on mobile